createdAt,value
2023-02-16T00:00:32.609Z,5.25
2023-02-16T00:02:59.448Z,5.35
2023-02-16T00:05:32.316Z,5.36
2023-02-16T00:07:59.073Z,5.16
2023-02-16T00:10:28.233Z,5.19
2023-02-16T00:13:13.578Z,5.09
2023-02-16T00:15:40.949Z,5.10
2023-02-16T00:18:16.761Z,5.03
2023-02-16T00:20:43.483Z,5.07
2023-02-16T00:23:10.181Z,5.07
2023-02-16T00:25:37.064Z,5.11
2023-02-16T00:28:06.083Z,5.14
2023-02-16T00:30:33.187Z,5.17
2023-02-16T00:33:00.762Z,5.16
2023-02-16T00:35:28.223Z,5.05
2023-02-16T00:37:54.872Z,4.95
2023-02-16T00:40:21.535Z,4.93
2023-02-16T00:42:48.257Z,4.92
2023-02-16T00:45:18.082Z,4.81
2023-02-16T00:47:47.028Z,4.72
2023-02-16T00:50:27.373Z,4.85
2023-02-16T00:52:54.782Z,4.83
2023-02-16T00:55:23.321Z,4.81
2023-02-16T00:57:56.312Z,4.85
2023-02-16T01:00:27.254Z,4.85
2023-02-16T01:02:56.815Z,4.92
2023-02-16T01:05:24.176Z,4.98
2023-02-16T01:08:10.008Z,4.97
2023-02-16T01:10:56.297Z,4.92
2023-02-16T01:13:23.818Z,4.93
2023-02-16T01:15:50.543Z,4.97
2023-02-16T01:18:18.938Z,5.06
2023-02-16T01:20:45.916Z,5.01
2023-02-16T01:23:12.605Z,5.06
2023-02-16T01:25:42.096Z,5.16
2023-02-16T01:28:23.571Z,5.14
2023-02-16T01:30:51.506Z,5.21
2023-02-16T01:33:19.258Z,5.17
2023-02-16T01:35:46.061Z,5.25
2023-02-16T01:38:20.662Z,5.34
2023-02-16T01:41:23.087Z,5.32
2023-02-16T01:44:23.941Z,5.35
2023-02-16T01:47:42.681Z,5.39
2023-02-16T01:50:18.341Z,5.50
2023-02-16T01:53:12.081Z,5.58
2023-02-16T01:55:43.621Z,5.66
2023-02-16T01:58:28.782Z,5.79
2023-02-16T02:00:55.464Z,5.76
2023-02-16T02:03:47.173Z,5.77
2023-02-16T02:06:17.687Z,5.87
2023-02-16T02:09:03.345Z,5.93
2023-02-16T02:11:33.912Z,5.71
2023-02-16T02:14:09.595Z,5.78
2023-02-16T02:16:36.342Z,5.83
2023-02-16T02:19:03.639Z,5.80
2023-02-16T02:22:10.885Z,5.86
2023-02-16T02:24:59.281Z,5.99
2023-02-16T02:27:38.167Z,5.99
2023-02-16T02:30:07.590Z,6.03
2023-02-16T02:32:34.237Z,6.12
2023-02-16T02:35:14.086Z,6.11
2023-02-16T02:37:49.742Z,6.11
2023-02-16T02:40:35.224Z,6.17
2023-02-16T02:43:09.913Z,6.23
2023-02-16T02:45:59.784Z,6.23
2023-02-16T02:48:31.362Z,6.30
2023-02-16T02:51:30.533Z,6.39
2023-02-16T02:54:35.206Z,6.44
2023-02-16T02:57:34.657Z,6.52
2023-02-16T03:00:23.678Z,6.56
2023-02-16T03:02:51.998Z,6.60
2023-02-16T03:05:20.568Z,6.74
2023-02-16T03:07:49.507Z,6.81
2023-02-16T03:10:42.803Z,6.74
2023-02-16T03:13:20.725Z,6.71
2023-02-16T03:15:48.568Z,6.75
2023-02-16T03:18:34.764Z,6.76
2023-02-16T03:21:21.736Z,6.80
2023-02-16T03:24:07.660Z,6.72
2023-02-16T03:26:53.469Z,6.64
2023-02-16T03:29:22.689Z,6.60
2023-02-16T03:31:51.220Z,6.69
2023-02-16T03:34:20.175Z,6.88
2023-02-16T03:36:52.580Z,6.87
2023-02-16T03:39:19.916Z,6.98
2023-02-16T03:41:49.618Z,6.91
2023-02-16T03:44:16.324Z,6.99
2023-02-16T03:46:43.233Z,7.03
2023-02-16T03:49:10.069Z,7.09
2023-02-16T03:51:36.945Z,7.02
2023-02-16T03:54:03.726Z,6.89
2023-02-16T03:56:30.422Z,6.80
2023-02-16T03:58:57.097Z,6.88
2023-02-16T04:01:23.956Z,6.77
2023-02-16T04:03:50.809Z,6.79
2023-02-16T04:06:17.754Z,6.81
2023-02-16T04:08:44.710Z,6.80
2023-02-16T04:11:29.957Z,6.75
2023-02-16T04:13:56.596Z,6.68
2023-02-16T04:16:23.380Z,6.65
2023-02-16T04:18:50.104Z,6.66
2023-02-16T04:21:16.788Z,6.86
2023-02-16T04:23:43.482Z,6.69
2023-02-16T04:26:10.123Z,6.64
2023-02-16T04:28:36.732Z,6.64
2023-02-16T04:31:03.800Z,6.63
2023-02-16T04:33:30.619Z,6.72
2023-02-16T04:35:57.214Z,6.67
2023-02-16T04:38:24.298Z,6.66
2023-02-16T04:40:50.984Z,6.71
2023-02-16T04:43:17.608Z,6.71
2023-02-16T04:45:44.356Z,6.73
2023-02-16T04:48:11.002Z,6.73
2023-02-16T04:50:37.702Z,6.72
2023-02-16T04:53:04.380Z,6.74
2023-02-16T04:55:31.119Z,6.80
2023-02-16T04:57:57.718Z,6.91
2023-02-16T05:00:24.623Z,6.81
2023-02-16T05:02:51.370Z,6.84
2023-02-16T05:05:18.069Z,6.75
2023-02-16T05:07:44.733Z,6.67
2023-02-16T05:10:11.517Z,6.79
2023-02-16T05:12:56.821Z,6.91
2023-02-16T05:15:23.553Z,6.90
2023-02-16T05:17:50.355Z,6.88
2023-02-16T05:20:17.104Z,6.86
2023-02-16T05:22:45.680Z,6.88
2023-02-16T05:25:12.353Z,6.80
2023-02-16T05:27:39.042Z,6.89
2023-02-16T05:30:06.312Z,7.11
2023-02-16T05:32:33.080Z,7.17
2023-02-16T05:34:59.772Z,7.29
2023-02-16T05:37:26.577Z,6.89
2023-02-16T05:39:53.213Z,6.91
2023-02-16T05:42:20.081Z,6.96
2023-02-16T05:44:46.739Z,6.99
2023-02-16T05:47:13.421Z,6.92
2023-02-16T05:49:40.149Z,6.96
2023-02-16T05:52:06.874Z,6.95
2023-02-16T05:54:33.545Z,6.95
2023-02-16T05:57:00.250Z,6.94
2023-02-16T05:59:26.939Z,7.00
2023-02-16T06:01:54.075Z,6.97
2023-02-16T06:04:21.292Z,7.00
2023-02-16T06:06:48.126Z,7.01
2023-02-16T06:09:14.921Z,7.03
2023-02-16T06:11:41.657Z,7.06
2023-02-16T06:14:10.550Z,7.21
2023-02-16T06:16:39.155Z,7.27
2023-02-16T06:19:06.836Z,7.15
2023-02-16T06:21:34.421Z,7.21
2023-02-16T06:24:01.232Z,7.28
2023-02-16T06:26:28.373Z,7.36
2023-02-16T06:28:55.876Z,7.34
2023-02-16T06:31:23.708Z,7.27
2023-02-16T06:33:50.691Z,7.37
2023-02-16T06:36:18.059Z,7.44
2023-02-16T06:38:45.721Z,7.45
2023-02-16T06:41:12.708Z,7.59
2023-02-16T06:43:39.683Z,7.36
2023-02-16T06:46:06.564Z,7.37
2023-02-16T06:48:33.489Z,7.39
2023-02-16T06:51:00.189Z,7.39
2023-02-16T06:53:27.973Z,7.34
2023-02-16T06:55:55.172Z,7.36
2023-02-16T06:58:21.883Z,7.43
2023-02-16T07:00:48.642Z,7.53
2023-02-16T07:03:15.396Z,7.57
2023-02-16T07:05:44.172Z,7.45
2023-02-16T07:08:10.990Z,7.48
2023-02-16T07:10:49.421Z,7.53
2023-02-16T07:13:16.672Z,7.48
2023-02-16T07:15:43.389Z,7.55
2023-02-16T07:18:10.033Z,7.67
2023-02-16T07:20:38.035Z,7.60
2023-02-16T07:23:05.011Z,7.64
2023-02-16T07:25:31.623Z,7.51
2023-02-16T07:27:58.390Z,7.57
2023-02-16T07:30:25.416Z,7.53
2023-02-16T07:32:52.192Z,7.60
2023-02-16T07:35:19.156Z,7.68
2023-02-16T07:37:46.045Z,7.59
2023-02-16T07:40:13.441Z,7.47
2023-02-16T07:42:40.174Z,7.53
2023-02-16T07:45:07.492Z,7.58
2023-02-16T07:47:34.315Z,7.53
2023-02-16T07:50:01.270Z,7.53
2023-02-16T07:52:31.235Z,7.57
2023-02-16T07:55:01.481Z,7.71
2023-02-16T07:57:28.859Z,7.70
2023-02-16T07:59:55.966Z,7.72
2023-02-16T08:02:23.651Z,7.86
2023-02-16T08:04:52.856Z,7.92
2023-02-16T08:07:20.341Z,7.93
2023-02-16T08:09:47.244Z,7.92
2023-02-16T08:12:14.964Z,7.79
2023-02-16T08:14:41.813Z,7.78
2023-02-16T08:17:09.304Z,7.74
2023-02-16T08:19:37.446Z,7.83
2023-02-16T08:22:04.807Z,7.77
2023-02-16T08:24:31.661Z,7.68
2023-02-16T08:26:58.369Z,7.81
2023-02-16T08:29:25.260Z,7.75
2023-02-16T08:31:53.477Z,7.70
2023-02-16T08:34:20.487Z,7.72
2023-02-16T08:36:51.286Z,7.69
2023-02-16T08:39:20.611Z,7.70
2023-02-16T08:41:48.744Z,7.61
2023-02-16T08:44:17.293Z,7.60
2023-02-16T08:46:45.927Z,7.63
2023-02-16T08:49:12.908Z,7.60
2023-02-16T08:51:47.256Z,7.59
2023-02-16T08:54:30.303Z,7.66
2023-02-16T08:56:59.200Z,7.61
2023-02-16T08:59:28.426Z,7.69
2023-02-16T09:01:56.893Z,7.70
2023-02-16T09:04:24.756Z,7.74
2023-02-16T09:06:52.508Z,7.68
2023-02-16T09:09:19.488Z,7.83
2023-02-16T09:11:46.376Z,7.70
2023-02-16T09:14:13.374Z,7.82
2023-02-16T09:16:45.891Z,7.89
2023-02-16T09:19:15.107Z,7.94
2023-02-16T09:21:42.127Z,7.94
2023-02-16T09:24:11.516Z,8.08
2023-02-16T09:26:41.380Z,8.13
2023-02-16T09:29:08.575Z,8.21
2023-02-16T09:31:37.331Z,8.29
2023-02-16T09:34:08.194Z,8.29
2023-02-16T09:36:35.654Z,8.23
2023-02-16T09:39:02.475Z,8.17
2023-02-16T09:41:41.375Z,8.35
2023-02-16T09:44:37.556Z,8.42
2023-02-16T09:47:11.861Z,8.56
2023-02-16T09:49:42.289Z,8.79
2023-02-16T09:52:08.900Z,8.74
2023-02-16T09:54:52.696Z,8.82
2023-02-16T09:57:36.355Z,8.95
2023-02-16T10:00:10.368Z,8.98
2023-02-16T10:02:51.007Z,8.82
2023-02-16T10:05:17.700Z,8.72
2023-02-16T10:07:58.640Z,8.99
2023-02-16T10:10:48.449Z,8.77
2023-02-16T10:13:37.016Z,8.92
2023-02-16T10:16:08.452Z,9.07
2023-02-16T10:18:39.001Z,9.07
2023-02-16T10:21:12.849Z,8.99
2023-02-16T10:23:49.969Z,9.02
2023-02-16T10:26:21.448Z,9.09
2023-02-16T10:28:56.221Z,9.01
2023-02-16T10:31:44.529Z,9.12
2023-02-16T10:34:39.857Z,9.15
2023-02-16T10:37:15.715Z,9.43
2023-02-16T10:39:52.009Z,9.51
2023-02-16T10:42:28.342Z,9.52
2023-02-16T10:45:00.882Z,9.53
2023-02-16T10:47:35.917Z,9.58
2023-02-16T10:50:03.793Z,9.94
2023-02-16T10:52:35.244Z,10.15
2023-02-16T10:55:02.324Z,10.18
2023-02-16T10:57:31.030Z,10.18
2023-02-16T10:59:59.911Z,10.35
2023-02-16T11:02:29.675Z,10.25
2023-02-16T11:04:58.313Z,10.51
2023-02-16T11:07:30.189Z,10.56
2023-02-16T11:10:00.908Z,10.76
2023-02-16T11:12:40.947Z,10.78
2023-02-16T11:15:13.943Z,10.87
2023-02-16T11:18:04.792Z,10.58
2023-02-16T11:20:34.974Z,10.68
2023-02-16T11:23:24.704Z,10.75
2023-02-16T11:25:57.176Z,11.13
2023-02-16T11:28:28.359Z,10.95
2023-02-16T11:31:06.375Z,11.10
2023-02-16T11:33:34.861Z,11.23
2023-02-16T11:36:05.333Z,10.88
2023-02-16T11:38:37.087Z,10.73
2023-02-16T11:41:06.479Z,10.89
2023-02-16T11:43:36.684Z,10.84
2023-02-16T11:46:16.817Z,10.41
2023-02-16T11:48:44.046Z,10.71
2023-02-16T11:51:15.139Z,10.89
2023-02-16T11:53:44.384Z,10.90
2023-02-16T11:56:37.390Z,11.23
2023-02-16T11:59:05.635Z,11.16
2023-02-16T12:02:11.065Z,11.21
2023-02-16T12:05:08.353Z,10.94
2023-02-16T12:08:08.444Z,11.06
2023-02-16T12:11:00.223Z,11.13
2023-02-16T12:13:38.588Z,11.18
2023-02-16T12:16:17.337Z,11.57
2023-02-16T12:18:49.050Z,11.44
2023-02-16T12:21:18.404Z,11.46
2023-02-16T12:23:59.524Z,11.15
2023-02-16T12:26:49.022Z,11.40
2023-02-16T12:29:57.556Z,11.66
2023-02-16T12:32:30.304Z,11.75
2023-02-16T12:35:03.071Z,12.01
2023-02-16T12:37:46.723Z,11.88
2023-02-16T12:40:19.002Z,11.76
2023-02-16T12:42:51.973Z,11.58
2023-02-16T12:45:23.506Z,11.43
2023-02-16T12:48:00.253Z,11.13
2023-02-16T12:50:27.892Z,11.13
2023-02-16T12:52:58.914Z,11.13
2023-02-16T12:55:38.687Z,11.34
2023-02-16T12:58:08.330Z,11.49
2023-02-16T13:00:41.466Z,11.46
2023-02-16T13:03:11.489Z,11.64
2023-02-16T13:05:38.212Z,11.84
2023-02-16T13:08:42.547Z,11.60
2023-02-16T13:11:24.340Z,11.84
2023-02-16T13:13:52.751Z,11.56
2023-02-16T13:16:30.540Z,11.41
2023-02-16T13:18:57.914Z,11.43
2023-02-16T13:21:51.309Z,11.44
2023-02-16T13:24:31.564Z,11.47
2023-02-16T13:27:04.147Z,11.74
2023-02-16T13:29:45.219Z,11.81
2023-02-16T13:32:19.252Z,11.68
2023-02-16T13:35:03.341Z,11.58
2023-02-16T13:37:51.802Z,11.33
2023-02-16T13:40:35.909Z,11.37
2023-02-16T13:43:30.773Z,11.09
2023-02-16T13:45:59.290Z,11.19
2023-02-16T13:48:52.384Z,11.07
2023-02-16T13:51:24.889Z,11.09
2023-02-16T13:54:01.541Z,11.15
2023-02-16T13:56:31.156Z,11.18
2023-02-16T13:59:00.917Z,11.11
2023-02-16T14:01:39.290Z,10.89
2023-02-16T14:04:12.873Z,10.90
2023-02-16T14:06:42.668Z,10.88
2023-02-16T14:09:12.209Z,10.92
2023-02-16T14:11:51.481Z,10.95
2023-02-16T14:14:32.440Z,10.89
2023-02-16T14:17:17.791Z,10.46
2023-02-16T14:20:07.423Z,10.24
2023-02-16T14:22:43.459Z,10.18
2023-02-16T14:25:22.375Z,10.23
2023-02-16T14:27:50.188Z,10.14
2023-02-16T14:30:29.226Z,10.12
2023-02-16T14:32:58.698Z,9.99
2023-02-16T14:35:30.384Z,9.97
2023-02-16T14:37:59.439Z,9.85
2023-02-16T14:40:35.294Z,9.81
2023-02-16T14:43:07.788Z,9.85
2023-02-16T14:46:11.936Z,9.67
2023-02-16T14:48:45.082Z,9.64
2023-02-16T14:51:59.764Z,9.80
2023-02-16T14:54:47.802Z,9.88
2023-02-16T14:57:20.869Z,9.70
2023-02-16T15:00:01.070Z,9.74
2023-02-16T15:02:33.973Z,9.74
2023-02-16T15:05:39.852Z,9.60
2023-02-16T15:08:16.548Z,9.60
2023-02-16T15:10:46.532Z,9.48
2023-02-16T15:13:30.145Z,9.51
2023-02-16T15:16:00.287Z,9.44
2023-02-16T15:18:42.824Z,9.32
2023-02-16T15:21:20.771Z,9.27
2023-02-16T15:23:52.913Z,9.33
2023-02-16T15:26:23.055Z,9.30
2023-02-16T15:29:01.447Z,9.33
2023-02-16T15:31:32.762Z,9.31
2023-02-16T15:34:08.172Z,9.32
2023-02-16T15:36:37.414Z,9.27
2023-02-16T15:39:15.418Z,9.21
2023-02-16T15:41:45.959Z,9.25
2023-02-16T15:44:36.600Z,9.17
2023-02-16T15:47:11.828Z,9.21
2023-02-16T15:49:39.008Z,9.23
2023-02-16T15:52:13.147Z,9.17
2023-02-16T15:54:40.935Z,9.28
2023-02-16T15:57:15.858Z,9.31
2023-02-16T15:59:55.887Z,9.22
2023-02-16T16:02:38.699Z,9.14
2023-02-16T16:05:09.701Z,9.03
2023-02-16T16:07:40.044Z,9.00
2023-02-16T16:10:24.860Z,9.03
2023-02-16T16:12:53.115Z,9.01
2023-02-16T16:15:24.227Z,9.04
2023-02-16T16:17:53.852Z,9.03
2023-02-16T16:20:33.060Z,9.16
2023-02-16T16:23:01.389Z,9.16
2023-02-16T16:25:44.963Z,8.95
2023-02-16T16:28:24.784Z,9.01
2023-02-16T16:31:15.967Z,9.16
2023-02-16T16:34:00.140Z,9.10
2023-02-16T16:36:36.846Z,9.15
2023-02-16T16:39:25.676Z,9.27
2023-02-16T16:42:01.269Z,9.19
2023-02-16T16:44:39.667Z,9.14
2023-02-16T16:47:22.430Z,9.25
2023-02-16T16:49:54.329Z,9.15
2023-02-16T16:52:35.252Z,9.24
2023-02-16T16:55:02.389Z,9.48
2023-02-16T16:57:30.260Z,9.45
2023-02-16T16:59:57.689Z,9.59
2023-02-16T17:02:24.453Z,9.57
2023-02-16T17:04:51.148Z,9.48
2023-02-16T17:07:17.884Z,9.49
2023-02-16T17:09:44.617Z,9.59
2023-02-16T17:12:11.345Z,9.50
2023-02-16T17:14:38.238Z,9.61
2023-02-16T17:17:08.654Z,9.51
2023-02-16T17:19:35.727Z,9.50
2023-02-16T17:22:02.541Z,9.53
2023-02-16T17:24:29.249Z,9.80
2023-02-16T17:26:56.115Z,9.87
2023-02-16T17:29:23.271Z,9.80
2023-02-16T17:31:50.760Z,9.53
2023-02-16T17:34:17.577Z,9.67
2023-02-16T17:36:44.401Z,9.88
2023-02-16T17:39:11.023Z,9.64
2023-02-16T17:41:37.835Z,9.66
2023-02-16T17:44:04.748Z,9.73
2023-02-16T17:46:32.073Z,9.45
2023-02-16T17:48:59.015Z,9.44
2023-02-16T17:51:26.618Z,9.41
2023-02-16T17:53:54.130Z,9.51
2023-02-16T17:56:23.095Z,9.49
2023-02-16T17:58:50.737Z,9.65
2023-02-16T18:01:20.124Z,9.43
2023-02-16T18:03:47.453Z,9.42
2023-02-16T18:06:16.037Z,9.65
2023-02-16T18:08:45.131Z,9.68
2023-02-16T18:11:13.245Z,9.57
2023-02-16T18:13:40.434Z,9.58
2023-02-16T18:16:08.200Z,9.65
2023-02-16T18:18:36.891Z,9.64
2023-02-16T18:21:03.794Z,9.62
2023-02-16T18:23:31.335Z,9.77
2023-02-16T18:25:58.026Z,9.57
2023-02-16T18:28:28.422Z,9.58
2023-02-16T18:30:55.203Z,9.65
2023-02-16T18:33:22.182Z,9.78
2023-02-16T18:35:51.805Z,9.81
2023-02-16T18:38:21.823Z,9.86
2023-02-16T18:40:49.285Z,9.89
2023-02-16T18:43:16.037Z,10.05
2023-02-16T18:45:42.846Z,10.00
2023-02-16T18:48:09.906Z,10.07
2023-02-16T18:50:36.662Z,10.06
2023-02-16T18:53:04.092Z,10.23
2023-02-16T18:55:33.188Z,10.01
2023-02-16T18:58:00.920Z,9.94
2023-02-16T19:00:28.003Z,10.17
2023-02-16T19:02:55.511Z,9.97
2023-02-16T19:05:23.014Z,9.97
2023-02-16T19:07:50.069Z,9.90
2023-02-16T19:10:16.991Z,9.98
2023-02-16T19:12:44.479Z,9.97
2023-02-16T19:15:11.224Z,9.98
2023-02-16T19:17:38.931Z,9.97
2023-02-16T19:20:11.706Z,9.94
2023-02-16T19:22:38.698Z,10.03
2023-02-16T19:25:06.899Z,10.03
2023-02-16T19:27:33.701Z,10.11
2023-02-16T19:30:00.535Z,10.03
2023-02-16T19:32:27.387Z,10.08
2023-02-16T19:34:54.191Z,10.09
2023-02-16T19:37:21.316Z,10.14
2023-02-16T19:39:48.037Z,10.13
2023-02-16T19:42:15.242Z,10.16
2023-02-16T19:44:42.038Z,10.21
2023-02-16T19:47:09.037Z,10.27
2023-02-16T19:49:36.627Z,10.23
2023-02-16T19:52:04.629Z,10.28
2023-02-16T19:54:35.007Z,10.46
2023-02-16T19:57:03.090Z,10.20
2023-02-16T19:59:30.217Z,10.19
2023-02-16T20:01:57.005Z,10.22
2023-02-16T20:04:23.836Z,10.14
2023-02-16T20:06:51.617Z,10.22
2023-02-16T20:09:18.524Z,10.15
2023-02-16T20:11:52.387Z,10.12
2023-02-16T20:14:19.375Z,10.09
2023-02-16T20:16:46.326Z,10.19
2023-02-16T20:19:13.082Z,10.11
2023-02-16T20:21:44.041Z,10.26
2023-02-16T20:24:11.317Z,10.17
2023-02-16T20:26:41.406Z,10.16
2023-02-16T20:29:09.483Z,10.31
2023-02-16T20:31:40.202Z,10.10
2023-02-16T20:34:07.655Z,10.01
2023-02-16T20:36:35.506Z,10.15
2023-02-16T20:39:02.927Z,10.02
2023-02-16T20:41:29.664Z,10.01
2023-02-16T20:43:56.340Z,10.03
2023-02-16T20:46:23.983Z,10.13
2023-02-16T20:48:51.401Z,10.14
2023-02-16T20:51:18.698Z,10.41
2023-02-16T20:53:45.652Z,10.51
2023-02-16T20:56:21.566Z,10.11
2023-02-16T20:58:50.505Z,10.13
2023-02-16T21:01:19.733Z,9.98
2023-02-16T21:03:46.464Z,9.98
2023-02-16T21:06:13.741Z,10.00
2023-02-16T21:08:40.839Z,10.12
2023-02-16T21:11:09.096Z,10.13
2023-02-16T21:13:37.474Z,9.87
2023-02-16T21:16:04.833Z,9.77
2023-02-16T21:18:31.666Z,9.67
2023-02-16T21:21:00.605Z,9.66
2023-02-16T21:23:27.492Z,9.64
2023-02-16T21:26:01.931Z,9.87
2023-02-16T21:28:29.158Z,9.90
2023-02-16T21:30:56.213Z,9.87
2023-02-16T21:33:23.055Z,9.92
2023-02-16T21:35:49.834Z,9.71
2023-02-16T21:38:17.739Z,9.69
2023-02-16T21:41:03.221Z,9.70
2023-02-16T21:43:29.884Z,9.77
2023-02-16T21:46:01.005Z,9.86
2023-02-16T21:48:50.156Z,9.80
2023-02-16T21:51:19.540Z,9.91
2023-02-16T21:53:46.675Z,9.86
2023-02-16T21:56:41.018Z,9.96
2023-02-16T21:59:10.861Z,9.91
2023-02-16T22:01:42.421Z,9.81
2023-02-16T22:04:11.980Z,9.82
2023-02-16T22:06:41.095Z,9.81
2023-02-16T22:09:10.843Z,9.80
2023-02-16T22:11:38.383Z,9.83
2023-02-16T22:14:05.133Z,9.81
2023-02-16T22:16:33.606Z,9.79
2023-02-16T22:19:05.010Z,9.83
2023-02-16T22:21:36.444Z,9.83
2023-02-16T22:24:03.620Z,9.87
2023-02-16T22:26:32.285Z,9.92
2023-02-16T22:28:59.373Z,9.90
2023-02-16T22:31:27.500Z,10.00
2023-02-16T22:34:01.801Z,9.91
2023-02-16T22:36:29.066Z,10.08
2023-02-16T22:38:55.983Z,10.01
2023-02-16T22:41:23.325Z,9.85
2023-02-16T22:43:56.588Z,9.79
2023-02-16T22:46:24.461Z,9.71
2023-02-16T22:48:51.936Z,9.73
2023-02-16T22:51:19.671Z,9.76
2023-02-16T22:53:47.062Z,9.65
2023-02-16T22:56:15.986Z,9.66
2023-02-16T22:58:43.449Z,9.65
2023-02-16T23:01:15.777Z,9.68
2023-02-16T23:03:42.872Z,9.66
2023-02-16T23:06:23.994Z,9.62
2023-02-16T23:08:56.714Z,9.68
2023-02-16T23:11:24.337Z,9.66
2023-02-16T23:13:51.116Z,9.66
2023-02-16T23:16:20.925Z,9.63
2023-02-16T23:18:48.259Z,9.68
2023-02-16T23:21:22.154Z,9.98
2023-02-16T23:23:50.346Z,9.82
2023-02-16T23:26:18.190Z,9.80
2023-02-16T23:28:45.123Z,9.71
2023-02-16T23:31:15.386Z,9.69
2023-02-16T23:33:42.265Z,9.73
2023-02-16T23:36:09.401Z,9.80
2023-02-16T23:38:36.840Z,9.87
2023-02-16T23:41:06.263Z,9.80
2023-02-16T23:43:33.168Z,9.76
2023-02-16T23:46:03.341Z,9.73
2023-02-16T23:48:31.003Z,9.80
2023-02-16T23:50:58.041Z,9.74
2023-02-16T23:53:26.879Z,9.87
2023-02-16T23:56:07.557Z,9.99
2023-02-16T23:58:37.090Z,10.05
